createdAt,value
2018-03-26T00:01:13.824Z,61.50
2018-03-26T00:03:41.423Z,61.84
2018-03-26T00:06:09.133Z,62.27
2018-03-26T00:08:36.808Z,62.89
2018-03-26T00:11:04.444Z,62.73
2018-03-26T00:15:58.955Z,62.13
2018-03-26T00:18:26.557Z,61.81
2018-03-26T00:23:28.209Z,61.93
2018-03-26T00:25:56.017Z,62.00
2018-03-26T00:28:23.718Z,61.70
2018-03-26T00:30:51.309Z,62.04
2018-03-26T00:33:19.041Z,61.82
2018-03-26T00:35:46.708Z,62.30
2018-03-26T00:38:14.379Z,62.50
2018-03-26T00:40:42.068Z,62.50
2018-03-26T00:43:09.674Z,62.08
2018-03-26T00:45:37.373Z,62.28
2018-03-26T00:48:04.983Z,63.35
2018-03-26T00:50:32.593Z,63.48
2018-03-26T00:53:00.265Z,63.17
2018-03-26T00:55:27.891Z,62.90
2018-03-26T00:57:55.563Z,62.86
2018-03-26T01:00:23.177Z,63.06
2018-03-26T01:02:50.867Z,63.21
2018-03-26T01:05:18.704Z,64.12
2018-03-26T01:07:46.388Z,64.37
2018-03-26T01:10:14.063Z,64.16
2018-03-26T01:12:41.796Z,64.17
2018-03-26T01:15:09.483Z,64.70
2018-03-26T01:17:37.193Z,64.73
2018-03-26T01:20:04.870Z,64.32
2018-03-26T01:22:32.596Z,64.29
2018-03-26T01:25:00.278Z,64.33
2018-03-26T01:27:27.988Z,64.22
2018-03-26T01:29:55.672Z,63.71
2018-03-26T01:32:23.351Z,63.86
2018-03-26T01:34:51.176Z,62.94
2018-03-26T01:37:18.858Z,63.27
2018-03-26T01:39:46.464Z,62.64
2018-03-26T01:42:14.152Z,62.59
2018-03-26T01:44:41.865Z,62.50
2018-03-26T01:47:09.560Z,62.71
2018-03-26T01:49:37.239Z,62.73
2018-03-26T01:52:04.863Z,63.89
2018-03-26T01:54:32.468Z,63.89
2018-03-26T01:57:00.153Z,63.58
2018-03-26T01:59:27.856Z,64.24
2018-03-26T02:01:55.526Z,63.54
2018-03-26T02:04:23.132Z,63.34
2018-03-26T02:06:50.724Z,63.39
2018-03-26T02:09:18.757Z,63.15
2018-03-26T02:11:46.424Z,63.27
2018-03-26T02:14:14.093Z,63.69
2018-03-26T02:16:41.787Z,63.79
2018-03-26T02:19:09.456Z,64.20
2018-03-26T02:21:37.149Z,64.20
2018-03-26T02:24:04.812Z,64.38
2018-03-26T02:26:32.803Z,64.22
2018-03-26T02:29:00.471Z,64.34
2018-03-26T02:31:28.149Z,64.05
2018-03-26T02:33:55.843Z,63.79
2018-03-26T02:36:23.518Z,63.37
2018-03-26T02:38:51.635Z,63.63
2018-03-26T02:41:19.312Z,63.53
2018-03-26T02:43:46.986Z,63.55
2018-03-26T02:46:14.680Z,63.33
2018-03-26T02:48:42.347Z,63.30
2018-03-26T02:51:09.970Z,63.41
2018-03-26T02:53:37.569Z,63.88
2018-03-26T02:56:05.280Z,63.97
2018-03-26T02:58:32.954Z,63.82
2018-03-26T03:01:00.626Z,63.60
2018-03-26T03:03:28.250Z,63.45
2018-03-26T03:05:55.844Z,63.64
2018-03-26T03:08:23.460Z,63.70
2018-03-26T03:10:51.133Z,63.76
2018-03-26T03:13:18.846Z,63.82
2018-03-26T03:15:46.435Z,63.71
2018-03-26T03:18:14.116Z,63.26
2018-03-26T03:20:41.815Z,63.10
2018-03-26T03:23:09.483Z,63.15
2018-03-26T03:25:37.187Z,62.77
2018-03-26T03:28:04.855Z,63.09
2018-03-26T03:30:32.481Z,62.64
2018-03-26T03:33:00.149Z,62.56
2018-03-26T03:35:27.856Z,63.14
2018-03-26T03:37:55.521Z,63.30
2018-03-26T03:40:23.206Z,62.87
2018-03-26T03:42:50.900Z,62.74
2018-03-26T03:45:18.591Z,62.48
2018-03-26T03:47:46.284Z,62.54
2018-03-26T03:50:13.967Z,63.25
2018-03-26T03:52:42.099Z,63.11
2018-03-26T03:55:09.798Z,62.91
2018-03-26T03:57:37.474Z,63.99
2018-03-26T04:00:05.197Z,63.51
2018-03-26T04:02:32.884Z,63.34
2018-03-26T04:05:00.588Z,63.07
2018-03-26T04:07:28.292Z,63.18
2018-03-26T04:09:56.264Z,63.45
2018-03-26T04:12:23.948Z,63.86
2018-03-26T04:14:51.624Z,63.54
2018-03-26T04:17:19.241Z,64.18
2018-03-26T04:19:46.910Z,64.56
2018-03-26T04:22:14.734Z,64.24
2018-03-26T04:24:42.399Z,63.91
2018-03-26T04:27:10.097Z,63.53
2018-03-26T04:29:37.791Z,64.40
2018-03-26T04:32:05.529Z,63.51
2018-03-26T04:34:33.203Z,63.52
2018-03-26T04:37:00.880Z,63.63
2018-03-26T04:39:28.500Z,63.21
2018-03-26T04:41:56.181Z,63.37
2018-03-26T04:44:23.936Z,63.10
2018-03-26T04:46:51.524Z,63.91
2018-03-26T04:49:19.115Z,64.04
2018-03-26T04:51:46.735Z,63.34
2018-03-26T04:54:14.342Z,63.57
2018-03-26T04:56:41.954Z,63.33
2018-03-26T04:59:09.556Z,62.90
2018-03-26T05:01:37.579Z,63.42
2018-03-26T05:04:05.186Z,63.63
2018-03-26T05:09:06.647Z,64.16
2018-03-26T05:11:34.256Z,64.13
2018-03-26T05:14:01.878Z,64.06
2018-03-26T05:16:29.481Z,63.45
2018-03-26T05:18:57.110Z,64.00
2018-03-26T05:21:24.717Z,63.78
2018-03-26T05:23:52.319Z,64.00
2018-03-26T05:26:19.944Z,65.17
2018-03-26T05:28:47.627Z,64.56
2018-03-26T05:31:15.233Z,64.14
2018-03-26T05:33:42.836Z,64.34
2018-03-26T05:36:10.793Z,63.96
2018-03-26T05:38:38.392Z,63.74
2018-03-26T05:41:05.988Z,63.85
2018-03-26T05:43:33.681Z,63.74
2018-03-26T05:46:01.275Z,63.84
2018-03-26T05:48:29.001Z,63.71
2018-03-26T05:50:56.672Z,63.53
2018-03-26T05:53:24.273Z,64.03
2018-03-26T05:55:51.969Z,63.60
2018-03-26T05:58:19.671Z,63.73
2018-03-26T06:00:47.611Z,64.09
2018-03-26T06:03:15.280Z,64.52
2018-03-26T06:05:42.970Z,64.47
2018-03-26T06:08:10.672Z,64.46
2018-03-26T06:10:38.370Z,64.03
2018-03-26T06:13:05.988Z,64.19
2018-03-26T06:15:33.708Z,63.51
2018-03-26T06:18:01.310Z,63.38
2018-03-26T06:20:28.983Z,63.38
2018-03-26T06:22:56.628Z,63.28
2018-03-26T06:25:24.226Z,63.63
2018-03-26T06:27:51.821Z,62.97
2018-03-26T06:30:19.454Z,63.04
2018-03-26T06:32:47.152Z,63.51
2018-03-26T06:35:14.918Z,63.48
2018-03-26T06:37:47.973Z,63.82
2018-03-26T06:40:15.621Z,62.75
2018-03-26T06:42:44.760Z,62.82
2018-03-26T06:45:12.362Z,62.65
2018-03-26T06:47:39.989Z,62.64
2018-03-26T06:50:07.588Z,62.50
2018-03-26T06:52:35.210Z,63.18
2018-03-26T06:55:02.832Z,62.96
2018-03-26T06:57:30.496Z,62.23
2018-03-26T06:59:58.089Z,62.35
2018-03-26T07:02:25.692Z,61.92
2018-03-26T07:04:53.312Z,61.95
2018-03-26T07:07:20.903Z,61.86
2018-03-26T07:09:48.546Z,61.93
2018-03-26T07:12:16.143Z,61.96
2018-03-26T07:14:43.879Z,62.46
2018-03-26T07:17:11.471Z,63.03
2018-03-26T07:19:39.060Z,63.47
2018-03-26T07:22:06.692Z,62.90
2018-03-26T07:24:34.291Z,64.15
2018-03-26T07:27:02.135Z,64.10
2018-03-26T07:29:29.739Z,62.99
2018-03-26T07:31:57.348Z,62.98
2018-03-26T07:34:24.969Z,64.75
2018-03-26T07:36:52.555Z,65.37
2018-03-26T07:39:20.182Z,65.23
2018-03-26T07:41:47.767Z,64.12
2018-03-26T07:44:15.559Z,64.02
2018-03-26T07:46:43.169Z,64.36
2018-03-26T07:49:10.769Z,64.98
2018-03-26T07:51:38.390Z,64.91
2018-03-26T07:54:06.117Z,65.33
2018-03-26T07:56:33.829Z,64.82
2018-03-26T07:59:01.863Z,64.65
2018-03-26T08:01:29.927Z,65.58
2018-03-26T08:03:57.593Z,66.39
2018-03-26T08:06:25.180Z,65.60
2018-03-26T08:08:52.871Z,65.30
2018-03-26T08:11:20.553Z,63.87
2018-03-26T08:13:48.249Z,63.33
2018-03-26T08:16:15.908Z,63.45
2018-03-26T08:18:43.763Z,62.67
2018-03-26T08:21:11.377Z,62.36
2018-03-26T08:23:38.963Z,62.61
2018-03-26T08:26:06.588Z,62.42
2018-03-26T08:28:34.171Z,62.48
2018-03-26T08:31:01.798Z,62.38
2018-03-26T08:33:29.414Z,61.37
2018-03-26T08:35:57.212Z,61.32
2018-03-26T08:38:24.825Z,62.05
2018-03-26T08:40:52.469Z,60.83
2018-03-26T08:43:20.060Z,61.04
2018-03-26T08:45:47.700Z,60.92
2018-03-26T08:48:15.316Z,61.20
2018-03-26T08:50:43.102Z,60.42
2018-03-26T08:53:11.056Z,60.54
2018-03-26T08:55:38.647Z,60.79
2018-03-26T08:58:06.249Z,60.45
2018-03-26T09:00:33.868Z,60.34
2018-03-26T09:03:01.497Z,59.98
2018-03-26T09:05:29.115Z,60.94
2018-03-26T09:07:56.720Z,61.71
2018-03-26T09:10:24.380Z,61.23
2018-03-26T09:12:51.979Z,59.47
2018-03-26T09:15:20.030Z,59.45
2018-03-26T09:17:48.004Z,58.96
2018-03-26T09:20:15.666Z,59.22
2018-03-26T09:22:43.278Z,58.77
2018-03-26T09:25:10.877Z,58.21
2018-03-26T09:27:38.825Z,58.73
2018-03-26T09:30:06.446Z,58.49
2018-03-26T09:32:34.881Z,58.15
2018-03-26T09:35:02.544Z,58.13
2018-03-26T09:37:30.159Z,58.53
2018-03-26T09:39:57.789Z,59.00
2018-03-26T09:42:25.388Z,58.52
2018-03-26T09:44:53.520Z,57.56
2018-03-26T09:47:21.490Z,57.77
2018-03-26T09:49:49.089Z,58.76
2018-03-26T09:52:16.717Z,59.03
2018-03-26T09:54:44.316Z,58.25
2018-03-26T09:57:11.959Z,58.29
2018-03-26T09:59:39.580Z,58.19
2018-03-26T10:02:07.206Z,57.36
2018-03-26T10:04:34.816Z,57.45
2018-03-26T10:07:02.664Z,56.56
2018-03-26T10:09:30.263Z,57.29
2018-03-26T10:11:57.867Z,56.98
2018-03-26T10:14:25.721Z,57.47
2018-03-26T10:16:53.571Z,57.06
2018-03-26T10:19:21.196Z,57.37
2018-03-26T10:21:48.799Z,57.25
2018-03-26T10:24:16.467Z,57.22
2018-03-26T10:26:44.067Z,57.19
2018-03-26T10:29:11.707Z,57.85
2018-03-26T10:31:39.299Z,57.24
2018-03-26T10:34:06.919Z,57.00
2018-03-26T10:36:34.540Z,56.96
2018-03-26T10:39:02.138Z,56.92
2018-03-26T10:41:29.756Z,56.92
2018-03-26T10:43:57.812Z,56.94
2018-03-26T10:46:25.748Z,57.09
2018-03-26T10:48:53.339Z,56.18
2018-03-26T10:51:20.940Z,56.37
2018-03-26T10:53:48.556Z,56.44
2018-03-26T10:56:16.172Z,56.20
2018-03-26T10:58:43.789Z,56.48
2018-03-26T11:01:11.405Z,55.99
2018-03-26T11:03:39.043Z,56.31
2018-03-26T11:06:06.900Z,55.65
2018-03-26T11:08:34.801Z,55.16
2018-03-26T11:11:02.773Z,55.53
2018-03-26T11:13:31.110Z,56.02
2018-03-26T11:15:59.183Z,55.80
2018-03-26T11:18:27.054Z,56.52
2018-03-26T11:20:55.293Z,56.32
2018-03-26T11:23:23.191Z,55.07
2018-03-26T11:25:51.056Z,55.70
2018-03-26T11:28:19.130Z,55.90
2018-03-26T11:30:46.975Z,55.73
2018-03-26T11:33:14.604Z,55.97
2018-03-26T11:35:43.137Z,56.04
2018-03-26T11:38:10.796Z,55.33
2018-03-26T11:40:38.431Z,55.59
2018-03-26T11:43:06.028Z,54.73
2018-03-26T11:45:33.994Z,55.26
2018-03-26T11:48:01.862Z,54.98
2018-03-26T11:50:29.517Z,55.42
2018-03-26T11:52:57.144Z,55.38
2018-03-26T11:55:24.759Z,54.22
2018-03-26T11:57:52.364Z,54.10
2018-03-26T12:00:20.003Z,54.01
2018-03-26T12:02:47.849Z,53.58
2018-03-26T12:05:16.547Z,53.81
2018-03-26T12:07:44.134Z,53.35
2018-03-26T12:10:11.732Z,52.56
2018-03-26T12:12:39.356Z,54.39
2018-03-26T12:15:06.956Z,54.36
2018-03-26T12:17:34.597Z,55.16
2018-03-26T12:20:14.769Z,54.37
2018-03-26T12:22:42.913Z,54.94
2018-03-26T12:25:13.235Z,55.39
2018-03-26T12:27:52.824Z,55.96
2018-03-26T12:30:20.431Z,55.12
2018-03-26T12:32:48.027Z,55.08
2018-03-26T12:35:27.457Z,54.49
2018-03-26T12:37:55.062Z,54.77
2018-03-26T12:40:34.496Z,54.88
2018-03-26T12:43:02.116Z,55.65
2018-03-26T12:45:41.910Z,55.31
2018-03-26T12:48:09.497Z,55.38
2018-03-26T12:50:49.199Z,54.99
2018-03-26T12:53:17.067Z,54.55
2018-03-26T12:55:44.663Z,55.04
2018-03-26T12:58:24.076Z,54.96
2018-03-26T13:01:03.696Z,55.76
2018-03-26T13:03:31.325Z,55.36
2018-03-26T13:05:59.102Z,54.95
2018-03-26T13:08:26.888Z,55.06
2018-03-26T13:10:54.479Z,55.37
2018-03-26T13:13:22.070Z,54.88
2018-03-26T13:15:49.704Z,54.25
2018-03-26T13:18:17.300Z,55.94
2018-03-26T13:20:45.275Z,53.71
2018-03-26T13:23:13.900Z,53.21
2018-03-26T13:25:41.763Z,53.41
2018-03-26T13:28:09.635Z,52.38
2018-03-26T13:30:37.603Z,51.68
2018-03-26T13:33:05.200Z,52.40
2018-03-26T13:35:32.797Z,51.38
2018-03-26T13:38:00.801Z,51.47
2018-03-26T13:40:28.763Z,52.33
2018-03-26T13:42:56.822Z,52.34
2018-03-26T13:45:25.108Z,51.27
2018-03-26T13:47:52.700Z,51.37
2018-03-26T13:50:20.733Z,50.62
2018-03-26T13:52:48.711Z,50.23
2018-03-26T13:55:16.331Z,49.98
2018-03-26T13:57:43.936Z,48.36
2018-03-26T14:00:11.576Z,47.49
2018-03-26T14:02:39.168Z,48.87
2018-03-26T14:05:06.772Z,47.39
2018-03-26T14:07:34.395Z,47.95
2018-03-26T14:10:13.792Z,49.30
2018-03-26T14:12:53.344Z,49.09
2018-03-26T14:15:32.701Z,48.31
2018-03-26T14:18:01.101Z,47.56
2018-03-26T14:20:29.046Z,47.61
2018-03-26T14:22:57.019Z,47.95
2018-03-26T14:25:24.639Z,48.55
2018-03-26T14:27:52.233Z,47.41
2018-03-26T14:30:19.845Z,47.03
2018-03-26T14:32:47.476Z,47.00
2018-03-26T14:38:29.361Z,47.25
2018-03-26T14:40:56.970Z,47.59
2018-03-26T14:43:24.588Z,52.12
2018-03-26T14:45:52.226Z,53.95
2018-03-26T14:48:20.042Z,56.45
2018-03-26T14:50:47.995Z,57.34
2018-03-26T14:53:15.967Z,59.04
2018-03-26T14:55:43.561Z,59.12
2018-03-26T14:58:11.152Z,59.91
2018-03-26T15:00:38.937Z,60.35
2018-03-26T15:03:06.541Z,61.93
2018-03-26T15:05:34.125Z,62.05
2018-03-26T15:08:01.748Z,61.76
2018-03-26T15:10:29.363Z,60.98
2018-03-26T15:12:56.963Z,62.58
2018-03-26T15:15:24.595Z,62.57
2018-03-26T15:17:52.272Z,63.41
2018-03-26T15:20:20.170Z,62.54
2018-03-26T15:22:48.051Z,63.78
2018-03-26T15:25:15.645Z,62.98
2018-03-26T15:27:43.331Z,64.15
2018-03-26T15:30:10.954Z,64.58
2018-03-26T15:32:38.543Z,63.96
2018-03-26T15:35:06.130Z,64.81
2018-03-26T15:37:33.766Z,64.56
2018-03-26T15:40:01.360Z,64.23
2018-03-26T15:42:29.043Z,64.40
2018-03-26T15:44:56.668Z,63.81
2018-03-26T15:47:24.280Z,63.81
2018-03-26T15:49:52.432Z,63.82
2018-03-26T15:52:20.378Z,64.42
2018-03-26T15:54:47.988Z,64.09
2018-03-26T15:57:15.576Z,63.58
2018-03-26T15:59:43.456Z,62.70
2018-03-26T16:02:15.314Z,62.55
2018-03-26T16:04:42.928Z,62.32
2018-03-26T16:07:10.640Z,62.07
2018-03-26T16:09:38.242Z,62.82
2018-03-26T16:12:05.847Z,62.87
2018-03-26T16:14:33.476Z,63.72
2018-03-26T16:17:01.081Z,64.68
2018-03-26T16:19:28.748Z,64.99
2018-03-26T16:21:56.386Z,65.50
2018-03-26T16:24:23.984Z,65.66
2018-03-26T16:26:51.580Z,65.09
2018-03-26T16:29:19.214Z,65.16
2018-03-26T16:31:46.812Z,64.77
2018-03-26T16:34:14.520Z,64.32
2018-03-26T16:36:42.142Z,64.76
2018-03-26T16:39:09.741Z,65.67
2018-03-26T16:41:47.390Z,63.48
2018-03-26T16:44:14.987Z,64.76
2018-03-26T16:46:42.588Z,63.51
2018-03-26T16:49:10.213Z,63.71
2018-03-26T16:51:37.803Z,63.29
2018-03-26T16:54:05.405Z,63.63
2018-03-26T16:56:33.040Z,63.95
2018-03-26T16:59:00.637Z,65.13
2018-03-26T17:01:28.326Z,64.65
2018-03-26T17:03:55.982Z,64.12
2018-03-26T17:06:23.659Z,63.71
2018-03-26T17:08:51.319Z,64.86
2018-03-26T17:11:18.951Z,64.76
2018-03-26T17:13:46.540Z,63.97
2018-03-26T17:16:14.136Z,64.04
2018-03-26T17:18:41.788Z,64.30
2018-03-26T17:21:09.430Z,64.37
2018-03-26T17:23:36.979Z,64.78
2018-03-26T17:26:04.618Z,63.94
2018-03-26T17:28:32.204Z,64.34
2018-03-26T17:30:59.804Z,63.76
2018-03-26T17:33:27.424Z,64.08
2018-03-26T17:35:55.028Z,63.35
2018-03-26T17:38:22.620Z,63.37
2018-03-26T17:40:50.239Z,63.28
2018-03-26T17:43:17.848Z,64.38
2018-03-26T17:45:45.444Z,62.76
2018-03-26T17:48:13.086Z,62.19
2018-03-26T17:50:40.688Z,62.41
2018-03-26T17:53:08.611Z,63.37
2018-03-26T17:55:36.241Z,63.55
2018-03-26T17:58:03.860Z,64.03
2018-03-26T18:00:31.469Z,64.10
2018-03-26T18:02:59.101Z,63.57
2018-03-26T18:05:26.696Z,64.63
2018-03-26T18:07:54.296Z,63.94
2018-03-26T18:10:22.054Z,63.76
2018-03-26T18:12:49.651Z,64.06
2018-03-26T18:15:17.268Z,64.52
2018-03-26T18:17:44.888Z,64.57
2018-03-26T18:20:12.490Z,64.54
2018-03-26T18:22:40.093Z,64.80
2018-03-26T18:25:07.783Z,65.12
2018-03-26T18:27:35.378Z,65.57
2018-03-26T18:30:02.985Z,65.43
2018-03-26T18:32:30.615Z,65.13
2018-03-26T18:34:58.212Z,65.95
2018-03-26T18:37:25.806Z,65.22
2018-03-26T18:39:53.428Z,65.83
2018-03-26T18:42:21.024Z,65.60
2018-03-26T18:44:48.615Z,65.48
2018-03-26T18:47:16.251Z,65.49
2018-03-26T18:49:43.873Z,65.53
2018-03-26T18:52:11.495Z,65.75
2018-03-26T18:54:39.123Z,65.73
2018-03-26T18:57:06.711Z,65.21
2018-03-26T18:59:34.300Z,65.24
2018-03-26T19:02:01.941Z,64.79
2018-03-26T19:04:29.537Z,65.39
2018-03-26T19:06:57.124Z,64.25
2018-03-26T19:09:24.762Z,64.76
2018-03-26T19:11:52.365Z,64.26
2018-03-26T19:14:19.964Z,64.64
2018-03-26T19:16:47.651Z,64.03
2018-03-26T19:19:15.220Z,64.66
2018-03-26T19:21:42.816Z,64.88
2018-03-26T19:24:10.442Z,64.14
2018-03-26T19:26:38.036Z,64.02
2018-03-26T19:29:05.652Z,64.26
2018-03-26T19:31:33.287Z,64.21
2018-03-26T19:34:00.880Z,64.06
2018-03-26T19:36:28.776Z,64.12
2018-03-26T19:38:56.408Z,64.19
2018-03-26T19:41:24.000Z,64.96
2018-03-26T19:43:51.605Z,65.33
2018-03-26T19:46:19.280Z,65.07
2018-03-26T19:48:46.907Z,64.91
2018-03-26T19:51:14.507Z,65.28
2018-03-26T19:53:42.137Z,65.04
2018-03-26T19:56:09.875Z,64.58
2018-03-26T19:58:37.458Z,64.60
2018-03-26T20:01:05.218Z,65.04
2018-03-26T20:03:32.888Z,65.08
2018-03-26T20:06:00.485Z,65.12
2018-03-26T20:08:28.114Z,65.41
2018-03-26T20:10:55.711Z,64.97
2018-03-26T20:13:23.299Z,64.59
2018-03-26T20:15:50.928Z,64.76
2018-03-26T20:18:18.519Z,64.75
2018-03-26T20:20:46.112Z,65.15
2018-03-26T20:23:13.791Z,65.77
2018-03-26T20:25:41.372Z,65.79
2018-03-26T20:28:08.968Z,66.27
2018-03-26T20:30:36.588Z,66.08
2018-03-26T20:33:04.327Z,65.67
2018-03-26T20:35:31.921Z,65.54
2018-03-26T20:37:59.551Z,65.35
2018-03-26T20:40:27.152Z,64.70
2018-03-26T20:42:54.754Z,65.25
2018-03-26T20:45:22.408Z,65.30
2018-03-26T20:47:49.999Z,65.57
2018-03-26T20:50:17.600Z,66.01
2018-03-26T20:52:45.223Z,66.19
2018-03-26T20:55:12.875Z,65.68
2018-03-26T20:57:40.525Z,64.66
2018-03-26T21:00:09.108Z,63.55
2018-03-26T21:02:36.707Z,63.66
2018-03-26T21:05:04.326Z,64.00
2018-03-26T21:07:32.065Z,64.83
2018-03-26T21:09:59.745Z,63.75
2018-03-26T21:12:27.473Z,64.35
2018-03-26T21:14:55.105Z,64.42
2018-03-26T21:17:22.697Z,63.26
2018-03-26T21:19:50.308Z,63.98
2018-03-26T21:22:17.932Z,64.20
2018-03-26T21:24:45.532Z,64.19
2018-03-26T21:27:13.135Z,63.53
2018-03-26T21:29:40.767Z,64.09
2018-03-26T21:32:08.371Z,64.04
2018-03-26T21:34:35.968Z,63.42
2018-03-26T21:37:03.620Z,63.65
2018-03-26T21:39:31.226Z,64.10
2018-03-26T21:41:58.819Z,64.05
2018-03-26T21:44:26.454Z,64.40
2018-03-26T21:46:54.068Z,64.13
2018-03-26T21:49:21.676Z,64.44
2018-03-26T21:51:49.309Z,64.58
2018-03-26T21:54:16.904Z,65.27
2018-03-26T21:56:44.496Z,64.95
2018-03-26T21:59:12.123Z,65.02
2018-03-26T22:01:39.733Z,64.77
2018-03-26T22:04:07.324Z,64.92
2018-03-26T22:06:34.954Z,64.94
2018-03-26T22:09:02.585Z,64.42
2018-03-26T22:11:30.176Z,64.32
2018-03-26T22:13:57.831Z,64.98
2018-03-26T22:16:25.429Z,63.87
2018-03-26T22:18:53.796Z,64.49
2018-03-26T22:21:21.426Z,63.99
2018-03-26T22:23:49.090Z,63.97
2018-03-26T22:26:16.684Z,63.68
2018-03-26T22:28:44.328Z,62.57
2018-03-26T22:31:11.949Z,63.23
2018-03-26T22:33:39.540Z,63.78
2018-03-26T22:36:07.179Z,62.56
2018-03-26T22:38:34.781Z,63.08
2018-03-26T22:41:02.374Z,63.60
2018-03-26T22:43:29.992Z,62.56
2018-03-26T22:45:57.600Z,61.85
2018-03-26T22:48:25.187Z,62.06
2018-03-26T22:50:52.986Z,63.13
2018-03-26T22:53:20.604Z,62.79
2018-03-26T22:55:48.224Z,62.20
2018-03-26T22:58:15.872Z,61.63
2018-03-26T23:00:43.460Z,62.20
2018-03-26T23:03:11.044Z,62.60
2018-03-26T23:05:38.664Z,63.08
2018-03-26T23:08:06.247Z,63.72
2018-03-26T23:10:33.849Z,63.76
2018-03-26T23:13:01.476Z,63.98
2018-03-26T23:15:29.073Z,64.75
2018-03-26T23:17:56.669Z,64.27
2018-03-26T23:20:24.651Z,65.13
2018-03-26T23:22:52.248Z,64.89
2018-03-26T23:25:19.845Z,65.05
2018-03-26T23:27:47.475Z,66.31
2018-03-26T23:30:15.100Z,65.60
2018-03-26T23:32:42.764Z,65.81
2018-03-26T23:35:10.383Z,65.70
2018-03-26T23:37:37.976Z,66.13
2018-03-26T23:40:05.571Z,67.02
2018-03-26T23:42:33.219Z,68.06
2018-03-26T23:45:00.815Z,68.58
2018-03-26T23:47:28.427Z,68.81
2018-03-26T23:49:56.076Z,69.00
2018-03-26T23:52:23.673Z,69.36
2018-03-26T23:54:51.277Z,70.10
2018-03-26T23:57:18.913Z,70.18
2018-03-26T23:59:46.518Z,69.98
